Time;durP1;ratioP1;P1;durP2;ratioP2;P2;SDS_P1;SDS_P2;PMS_P1;PMS_P2;Temp;Humidity;BMP_temperature;BMP_pressure;BME280_temperature;BME280_humidity;BME280_pressure;Samples;Min_cycle;Max_cycle;Signal;HPM_P1;HPM_P2
2023/03/06 00:01:55;;;;;;;;;35.00;27.50;;;;;7.12;100.00;100871.22;5036110;28;46240;-83
2023/03/06 00:04:20;;;;;;;;;27.75;22.00;;;;;7.14;100.00;100870.31;5036222;28;45390;-83
2023/03/06 00:06:46;;;;;;;;;35.50;24.25;;;;;7.19;100.00;100872.84;5036010;28;48253;-83
2023/03/06 00:09:11;;;;;;;;;39.00;32.50;;;;;7.20;100.00;100871.09;5035562;28;54288;-83
2023/03/06 00:11:36;;;;;;;;;24.50;21.75;;;;;7.17;100.00;100870.28;5036253;28;45353;-84
2023/03/06 00:14:02;;;;;;;;;34.50;21.75;;;;;7.16;100.00;100854.75;5035920;28;45388;-84
2023/03/06 00:16:27;;;;;;;;;29.50;21.25;;;;;7.15;100.00;100861.69;5035589;28;58165;-84
2023/03/06 00:18:53;;;;;;;;;29.25;22.75;;;;;7.15;100.00;100863.38;5034082;28;62954;-84
2023/03/06 00:21:18;;;;;;;;;41.50;22.50;;;;;7.13;100.00;100855.66;5035393;28;65278;-84
2023/03/06 00:23:43;;;;;;;;;32.50;22.50;;;;;7.08;100.00;100852.28;5034784;28;64241;-84
2023/03/06 00:26:09;;;;;;;;;29.75;23.00;;;;;7.09;100.00;100851.38;5033855;28;59786;-84
2023/03/06 00:28:35;;;;;;;;;27.75;21.50;;;;;7.10;100.00;100847.94;5035007;28;45509;-84
2023/03/06 00:31:01;;;;;;;;;25.00;18.25;;;;;7.12;100.00;100842.75;5034471;28;46316;-84
2023/03/06 00:33:26;;;;;;;;;27.50;18.00;;;;;7.11;100.00;100841.88;5034349;28;45616;-83
2023/03/06 00:35:51;;;;;;;;;27.00;22.25;;;;;7.13;100.00;100847.03;5034711;28;45435;-84
2023/03/06 00:38:17;;;;;;;;;28.50;20.50;;;;;7.14;100.00;100839.25;5035391;28;45339;-84
2023/03/06 00:40:42;;;;;;;;;30.00;20.25;;;;;7.16;100.00;100841.81;5035740;28;47371;-84
2023/03/06 00:43:07;;;;;;;;;37.25;24.25;;;;;7.15;100.00;100840.97;5036498;28;45644;-84
2023/03/06 00:45:33;;;;;;;;;35.00;23.50;;;;;7.15;100.00;100840.97;5036217;28;45535;-84
2023/03/06 00:47:58;;;;;;;;;23.50;19.00;;;;;7.13;100.00;100837.53;5041721;28;45426;-85
2023/03/06 00:50:24;;;;;;;;;31.00;24.00;;;;;7.07;100.00;100837.59;5047412;28;60885;-84
2023/03/06 00:52:49;;;;;;;;;30.50;23.50;;;;;7.06;100.00;100842.81;5042616;28;45424;-84
2023/03/06 00:55:14;;;;;;;;;43.75;23.25;;;;;7.08;100.00;100841.06;5036288;28;45432;-85
2023/03/06 00:57:40;;;;;;;;;26.00;22.25;;;;;7.10;100.00;100847.09;5035850;28;45502;-84
2023/03/06 01:00:06;;;;;;;;;25.00;21.50;;;;;7.09;100.00;100840.19;5035357;28;45581;-84
2023/03/06 01:02:32;;;;;;;;;24.50;22.25;;;;;7.07;100.00;100841.94;5035549;28;45277;-84
2023/03/06 01:04:57;;;;;;;;;33.75;24.25;;;;;7.05;100.00;100844.53;5034219;28;45442;-84
2023/03/06 01:07:23;;;;;;;;;35.75;22.50;;;;;7.05;100.00;100848.88;5034441;28;61758;-84
2023/03/06 01:09:48;;;;;;;;;28.75;20.25;;;;;7.01;100.00;100844.59;5035424;28;45514;-84
2023/03/06 01:12:13;;;;;;;;;31.25;22.75;;;;;6.98;100.00;100846.34;5035155;28;45346;-84
2023/03/06 01:14:39;;;;;;;;;26.00;22.25;;;;;6.94;100.00;100846.41;5035161;28;45332;-84
2023/03/06 01:17:04;;;;;;;;;33.75;22.00;;;;;6.90;100.00;100834.38;5035041;28;55569;-84
2023/03/06 01:19:29;;;;;;;;;27.50;19.00;;;;;6.90;100.00;100835.22;5035097;28;47787;-85
2023/03/06 01:21:55;;;;;;;;;27.75;21.25;;;;;6.90;100.00;100836.97;5033841;28;45393;-84
2023/03/06 01:24:22;;;;;;;;;28.50;22.00;;;;;6.88;100.00;100829.22;5035050;28;45310;-84
2023/03/06 01:26:48;;;;;;;;;27.50;22.50;;;;;6.88;100.00;100834.41;5035220;28;45393;-84
2023/03/06 01:29:13;;;;;;;;;31.50;22.00;;;;;6.86;100.00;100827.53;5034021;28;45432;-84
2023/03/06 01:31:38;;;;;;;;;32.50;22.25;;;;;6.84;100.00;100827.56;5034536;28;62387;-84
2023/03/06 01:34:04;;;;;;;;;28.25;19.75;;;;;6.81;100.00;100818.97;5034358;28;55368;-85
2023/03/06 01:36:29;;;;;;;;;31.25;22.75;;;;;6.76;100.00;100813.84;5033907;28;60704;-84
2023/03/06 01:38:55;;;;;;;;;26.75;19.25;;;;;6.72;100.00;100809.56;5037131;28;69689;-84
2023/03/06 01:41:20;;;;;;;;;26.25;19.00;;;;;6.63;100.00;100820.03;5038346;28;45507;-84
2023/03/06 01:43:46;;;;;;;;;25.50;19.25;;;;;6.62;100.00;100805.41;5038416;28;45471;-84
2023/03/06 01:46:29;;;;;;;;;32.50;19.00;;;;;6.63;100.00;100813.16;5038408;28;45266;-84
2023/03/06 01:49:12;;;;;;;;;33.75;18.75;;;;;6.65;100.00;100805.34;5038089;28;45426;-83
2023/03/06 01:51:45;;;;;;;;;27.00;19.75;;;;;6.61;100.00;100801.09;5037778;28;46002;-84
2023/03/06 01:54:15;;;;;;;;;28.75;21.00;;;;;6.52;100.00;100799.44;5020383;28;45692;-84
2023/03/06 01:56:43;;;;;;;;;39.75;24.75;;;;;6.47;100.00;100796.09;5037073;28;45433;-84
2023/03/06 01:59:09;;;;;;;;;29.75;24.75;;;;;6.43;100.00;100794.41;5036895;28;45399;-84
2023/03/06 02:01:38;;;;;;;;;32.75;23.00;;;;;6.45;100.00;100797.84;5036859;28;45353;-84
2023/03/06 02:04:03;;;;;;;;;26.50;21.25;;;;;6.45;100.00;100808.19;5036880;28;45361;-84
2023/03/06 02:06:29;;;;;;;;;21.50;20.50;;;;;6.44;100.00;100796.09;5037704;28;45364;-84
2023/03/06 02:08:54;;;;;;;;;32.25;22.75;;;;;6.43;100.00;100792.66;5035884;28;69204;-84
2023/03/06 02:11:22;;;;;;;;;28.50;19.25;;;;;6.44;100.00;100786.59;5035821;28;63420;-84
2023/03/06 02:13:49;;;;;;;;;28.75;20.00;;;;;6.46;100.00;100789.19;5038076;28;45212;-83
2023/03/06 02:16:16;;;;;;;;;34.25;18.75;;;;;6.47;100.00;100785.75;5036747;28;45465;-84
2023/03/06 02:18:43;;;;;;;;;29.25;20.00;;;;;6.50;100.00;100790.84;5036581;28;45565;-84
2023/03/06 02:21:11;;;;;;;;;23.75;18.75;;;;;6.47;100.00;100786.59;5036350;28;45387;-83
2023/03/06 02:23:58;;;;;;;;;34.25;22.50;;;;;6.49;100.00;100776.22;5036523;28;45297;-84
2023/03/06 02:26:26;;;;;;;;;35.25;24.00;;;;;6.53;100.00;100775.31;5037814;28;45558;-84
2023/03/06 02:28:51;;;;;;;;;27.00;20.75;;;;;6.49;100.00;100760.72;5036422;28;45574;-84
2023/03/06 02:31:25;;;;;;;;;26.50;20.75;;;;;6.48;100.00;100759.88;5037436;28;45368;-84
2023/03/06 02:34:19;;;;;;;;;22.25;20.00;;;;;6.43;100.00;100756.47;5036429;28;45356;-84
2023/03/06 02:36:49;;;;;;;;;25.75;20.25;;;;;6.36;100.00;100752.25;5032544;28;45323;-84
2023/03/06 02:39:17;;;;;;;;;37.25;21.00;;;;;6.27;100.00;100760.94;5036055;28;45389;-83
2023/03/06 02:41:42;;;;;;;;;32.25;21.50;;;;;6.20;100.00;100751.53;5036341;28;45635;-84
2023/03/06 02:44:08;;;;;;;;;28.75;19.75;;;;;6.20;100.00;100749.84;5036712;28;63649;-84
2023/03/06 02:46:33;;;;;;;;;29.00;22.25;;;;;6.24;100.00;100742.91;5036736;28;63245;-83
2023/03/06 02:48:58;;;;;;;;;29.25;21.00;;;;;6.22;100.00;100739.44;5034308;28;70129;-84
2023/03/06 02:51:24;;;;;;;;;37.00;22.25;;;;;6.24;100.00;100739.44;5035038;28;66972;-84
2023/03/06 02:53:49;;;;;;;;;22.25;16.25;;;;;6.25;100.00;100741.16;5036728;28;60268;-83
2023/03/06 02:56:15;;;;;;;;;32.50;22.25;;;;;6.28;100.00;100738.53;5035691;28;57503;-84
2023/03/06 02:58:40;;;;;;;;;25.00;17.50;;;;;6.28;100.00;100730.78;5036238;28;70338;-83
2023/03/06 03:01:06;;;;;;;;;27.75;23.75;;;;;6.28;100.00;100728.19;5037052;28;45395;-84
2023/03/06 03:03:32;;;;;;;;;20.50;18.00;;;;;6.30;100.00;100729.91;5035933;28;62188;-84
2023/03/06 03:05:58;;;;;;;;;29.75;21.50;;;;;6.34;100.00;100731.56;5035974;28;45530;-84
2023/03/06 03:08:23;;;;;;;;;29.50;21.00;;;;;6.35;100.00;100737.59;5037023;28;46120;-84
2023/03/06 03:10:48;;;;;;;;;35.50;22.00;;;;;6.35;100.00;100735.88;5036229;28;67899;-84
2023/03/06 03:13:14;;;;;;;;;31.00;23.25;;;;;6.35;100.00;100732.41;5036675;28;58317;-84
2023/03/06 03:15:40;;;;;;;;;22.50;17.00;;;;;6.37;100.00;100728.06;5037087;28;45317;-83
2023/03/06 03:18:05;;;;;;;;;28.75;23.75;;;;;6.42;100.00;100730.63;5036473;28;46368;-84
2023/03/06 03:20:30;;;;;;;;;25.75;19.50;;;;;6.45;100.00;100726.28;5036376;28;59010;-84
2023/03/06 03:22:56;;;;;;;;;24.75;17.25;;;;;6.39;100.00;100727.22;5051420;28;65346;-84
2023/03/06 03:25:23;;;;;;;;;22.25;18.25;;;;;6.38;100.00;100727.22;5036628;28;45286;-84
2023/03/06 03:27:49;;;;;;;;;29.25;21.75;;;;;6.38;100.00;100724.63;5036601;28;46431;-83
2023/03/06 03:30:15;;;;;;;;;25.00;19.00;;;;;6.33;100.00;100723.81;5036662;28;45354;-84
2023/03/06 03:32:40;;;;;;;;;27.25;18.25;;;;;6.30;100.00;100726.47;5036410;28;45369;-84
2023/03/06 03:35:06;;;;;;;;;26.00;15.50;;;;;6.28;100.00;100723.91;5036032;28;61767;-83
2023/03/06 03:37:33;;;;;;;;;27.00;21.00;;;;;6.25;100.00;100716.16;5035099;28;47446;-84
2023/03/06 03:39:58;;;;;;;;;24.00;13.25;;;;;6.25;100.00;100713.56;5035375;28;45954;-83
2023/03/06 03:42:24;;;;;;;;;28.00;22.00;;;;;6.31;100.00;100723.00;5036929;28;45681;-84
2023/03/06 03:44:49;;;;;;;;;33.00;21.00;;;;;6.35;100.00;100722.06;5035047;28;45627;-84
2023/03/06 03:47:15;;;;;;;;;28.50;20.75;;;;;6.33;100.00;100718.66;5035531;28;64468;-84
2023/03/06 03:49:40;;;;;;;;;27.75;18.75;;;;;6.32;100.00;100714.38;5050380;28;63644;-83
2023/03/06 03:52:06;;;;;;;;;31.00;20.00;;;;;6.32;100.00;100714.38;5018369;28;45321;-84
2023/03/06 03:54:31;;;;;;;;;24.00;17.00;;;;;6.24;100.00;100709.31;5036623;28;45382;-84
2023/03/06 03:56:56;;;;;;;;;29.25;20.75;;;;;6.16;100.00;100709.34;5035629;28;60273;-84
2023/03/06 03:59:22;;;;;;;;;25.75;21.00;;;;;6.16;100.00;100701.59;5035873;28;49140;-84
2023/03/06 04:01:48;;;;;;;;;33.50;21.75;;;;;6.14;100.00;100700.78;5017634;28;45330;-83
2023/03/06 04:04:14;;;;;;;;;28.50;19.25;;;;;6.10;100.00;100706.00;5036149;28;45222;-83
2023/03/06 04:06:39;;;;;;;;;29.50;23.25;;;;;6.10;100.00;100700.84;5036183;28;45513;-84
2023/03/06 04:09:05;;;;;;;;;29.00;23.25;;;;;6.07;100.00;100698.28;5034684;28;50251;-84
2023/03/06 04:11:30;;;;;;;;;35.25;23.25;;;;;6.07;100.00;100699.13;5018480;28;45611;-84
2023/03/06 04:13:56;;;;;;;;;28.00;19.25;;;;;6.12;100.00;100699.94;5036021;28;45360;-84
2023/03/06 04:16:21;;;;;;;;;33.75;19.75;;;;;6.16;100.00;100686.09;5016901;28;69117;-84
2023/03/06 04:18:46;;;;;;;;;35.75;21.00;;;;;6.12;100.00;100683.59;5035438;28;61169;-84
2023/03/06 04:21:12;;;;;;;;;31.00;19.00;;;;;6.12;100.00;100686.16;5017513;28;63986;-84
2023/03/06 04:23:37;;;;;;;;;32.33;17.33;;;;;6.13;100.00;100677.53;5035834;28;45552;-84
2023/03/06 04:26:03;;;;;;;;;29.00;20.50;;;;;6.15;100.00;100680.97;5017798;28;47083;-83
2023/03/06 04:28:28;;;;;;;;;26.50;20.25;;;;;6.14;100.00;100679.25;5035698;28;45450;-83
2023/03/06 04:30:53;;;;;;;;;30.00;19.75;;;;;6.07;100.00;100675.00;5035654;28;45509;-84
2023/03/06 04:33:19;;;;;;;;;27.50;19.00;;;;;6.03;100.00;100678.50;5036752;28;57383;-83
2023/03/06 04:35:44;;;;;;;;;27.25;18.75;;;;;5.98;100.00;100671.69;5055065;28;70368;-84
2023/03/06 04:38:10;;;;;;;;;25.00;17.50;;;;;5.95;100.00;100674.28;5055124;28;65280;-84
2023/03/06 04:40:35;;;;;;;;;28.75;20.00;;;;;5.94;100.00;100680.31;5056078;28;45404;-84
2023/03/06 04:43:02;;;;;;;;;31.00;19.25;;;;;5.96;100.00;100673.44;5055690;28;45471;-83
2023/03/06 04:45:29;;;;;;;;;34.00;19.75;;;;;5.94;100.00;100679.44;5055293;28;47294;-84
2023/03/06 04:47:55;;;;;;;;;27.25;19.00;;;;;5.94;100.00;100677.72;5055739;28;45823;-84
2023/03/06 04:50:21;;;;;;;;;32.00;19.50;;;;;5.92;100.00;100684.59;5029727;28;45400;-83
2023/03/06 04:52:46;;;;;;;;;32.00;21.75;;;;;5.90;100.00;100677.75;5035623;28;45329;-83
2023/03/06 04:55:14;;;;;;;;;34.50;19.25;;;;;5.91;100.00;100676.91;5017540;28;46387;-83
2023/03/06 04:57:40;;;;;;;;;32.25;21.50;;;;;5.91;100.00;100672.59;5017682;28;45914;-84
2023/03/06 05:00:18;;;;;;;;;30.50;18.00;;;;;5.88;100.00;100670.03;5000827;28;45271;-84
2023/03/06 05:02:44;;;;;;;;;36.25;19.75;;;;;5.82;100.00;100678.69;5017368;28;45494;-84
2023/03/06 05:05:10;;;;;;;;;25.25;21.00;;;;;5.80;100.00;100670.09;5035091;28;45947;-83
2023/03/06 05:07:36;;;;;;;;;22.75;22.00;;;;;5.82;100.00;100672.69;5035634;28;45795;-84
2023/03/06 05:10:01;;;;;;;;;26.50;20.75;;;;;5.84;100.00;100668.34;5035468;28;45365;-84
2023/03/06 05:12:27;;;;;;;;;29.00;20.00;;;;;5.87;100.00;100676.06;5036580;28;45461;-84
2023/03/06 05:14:52;;;;;;;;;24.75;19.00;;;;;5.86;100.00;100676.94;5037536;28;69826;-84
2023/03/06 05:17:17;;;;;;;;;28.75;20.00;;;;;5.90;100.00;100675.19;5037475;28;45690;-83
2023/03/06 05:19:43;;;;;;;;;23.25;15.75;;;;;5.91;100.00;100670.00;5038426;28;53748;-83
2023/03/06 05:22:08;;;;;;;;;37.00;24.00;;;;;5.90;100.00;100673.44;5038567;28;49013;-84
2023/03/06 05:24:33;;;;;;;;;28.50;23.00;;;;;5.92;100.00;100676.00;5020751;28;47121;-83
2023/03/06 05:26:59;;;;;;;;;31.25;19.75;;;;;5.93;100.00;100678.59;5037959;28;64088;-83
2023/03/06 05:29:24;;;;;;;;;34.25;21.75;;;;;5.89;100.00;100666.56;5037757;28;60777;-84
2023/03/06 05:31:49;;;;;;;;;32.50;19.25;;;;;5.88;100.00;100666.59;5020673;28;46209;-84
2023/03/06 05:34:15;;;;;;;;;32.00;20.25;;;;;5.88;100.00;100664.84;5047218;28;64114;-84
2023/03/06 05:36:41;;;;;;;;;33.75;24.00;;;;;5.89;100.00;100658.81;5058636;28;45376;-84
2023/03/06 05:39:07;;;;;;;;;31.50;19.50;;;;;5.86;100.00;100661.44;5040695;28;45444;-84
2023/03/06 05:41:33;;;;;;;;;37.75;25.50;;;;;5.81;100.00;100660.63;5058837;28;45444;-84
2023/03/06 05:43:58;;;;;;;;;24.25;17.50;;;;;5.76;100.00;100662.41;5039713;28;57188;-83
2023/03/06 05:46:24;;;;;;;;;27.50;24.00;;;;;5.72;100.00;100651.25;5058515;28;49230;-83
2023/03/06 05:48:54;;;;;;;;;20.50;18.00;;;;;5.70;100.00;100649.53;5039658;28;59387;-84
2023/03/06 05:51:19;;;;;;;;;26.75;20.00;;;;;5.66;100.00;100629.78;5042240;28;45684;-84
2023/03/06 05:53:45;;;;;;;;;26.75;19.00;;;;;5.64;100.00;100619.47;5038390;28;46052;-83
2023/03/06 05:56:12;;;;;;;;;20.75;18.50;;;;;5.61;100.00;100614.38;5003686;28;53504;-83
2023/03/06 05:58:37;;;;;;;;;26.50;16.50;;;;;5.59;100.00;100619.53;5038362;28;45274;-84
2023/03/06 06:01:11;;;;;;;;;23.25;16.00;;;;;5.56;100.00;100619.56;5038143;28;45475;-83
2023/03/06 06:03:37;;;;;;;;;20.25;15.75;;;;;5.54;100.00;100613.56;5020208;28;45440;-84
2023/03/06 06:06:04;;;;;;;;;25.00;17.50;;;;;5.51;100.00;100603.25;5020204;28;45763;-84
2023/03/06 06:08:29;;;;;;;;;29.00;20.50;;;;;5.51;100.00;100611.00;5038341;28;45301;-83
2023/03/06 06:10:55;;;;;;;;;18.25;17.00;;;;;5.51;100.00;100608.41;5020505;28;45396;-84
2023/03/06 06:13:20;;;;;;;;;32.75;20.75;;;;;5.54;100.00;100615.28;5036674;28;65636;-83
2023/03/06 06:15:45;;;;;;;;;20.75;18.75;;;;;5.54;100.00;100620.47;5020309;28;45305;-84
2023/03/06 06:18:11;;;;;;;;;28.00;18.50;;;;;5.58;100.00;100622.97;5037312;28;58133;-83
2023/03/06 06:20:36;;;;;;;;;24.00;17.75;;;;;5.60;100.00;100621.22;5037627;28;55027;-84
2023/03/06 06:23:02;;;;;;;;;30.50;15.50;;;;;5.63;100.00;100623.78;5037492;28;46028;-82
2023/03/06 06:25:27;;;;;;;;;41.00;18.00;;;;;5.67;100.00;100627.19;5019888;28;45492;-83
2023/03/06 06:27:55;;;;;;;;;31.75;20.25;;;;;5.65;100.00;100628.09;5019374;28;62972;-83
2023/03/06 06:30:20;;;;;;;;;20.25;16.00;;;;;5.63;100.00;100635.84;5037889;28;45457;-83
2023/03/06 06:32:46;;;;;;;;;28.00;19.75;;;;;5.65;100.00;100646.19;5037655;28;46405;-84
2023/03/06 06:35:11;;;;;;;;;31.50;20.75;;;;;5.66;100.00;100645.28;5036404;28;56120;-84
2023/03/06 06:37:36;;;;;;;;;21.25;14.75;;;;;5.65;100.00;100664.25;5039272;28;59332;-83
2023/03/06 06:40:03;;;;;;;;;22.75;16.00;;;;;5.59;100.00;100662.56;5039143;28;62960;-84
2023/03/06 06:42:28;;;;;;;;;32.00;21.00;;;;;5.57;100.00;100651.38;5057222;28;45390;-84
2023/03/06 06:44:54;;;;;;;;;37.50;18.75;;;;;5.57;100.00;100664.31;5055785;28;65683;-83
2023/03/06 06:47:19;;;;;;;;;31.50;23.25;;;;;5.59;100.00;100666.03;5057584;28;45310;-83
2023/03/06 06:49:49;;;;;;;;;28.00;19.50;;;;;5.65;100.00;100666.84;5053910;28;57476;-83
2023/03/06 06:52:15;;;;;;;;;26.50;23.00;;;;;5.61;100.00;100656.53;5037396;28;46252;-84
2023/03/06 06:54:40;;;;;;;;;24.75;16.00;;;;;5.56;100.00;100657.44;5052669;28;49987;-83
2023/03/06 06:57:05;;;;;;;;;25.75;15.25;;;;;5.55;100.00;100669.50;5034978;28;65062;-84
2023/03/06 06:59:31;;;;;;;;;24.25;19.25;;;;;5.52;100.00;100661.78;5036596;28;65299;-83
2023/03/06 07:01:56;;;;;;;;;29.50;20.75;;;;;5.49;100.00;100661.78;5068703;28;66517;-83
2023/03/06 07:04:22;;;;;;;;;27.50;18.00;;;;;5.47;100.00;100660.09;5037113;28;45648;-83
2023/03/06 07:06:47;;;;;;;;;23.25;17.00;;;;;5.43;100.00;100660.13;5069751;28;45773;-81
2023/03/06 07:09:13;;;;;;;;;27.00;22.50;;;;;5.40;100.00;100655.00;5037087;28;45432;-81
2023/03/06 07:11:39;;;;;;;;;24.25;20.25;;;;;5.41;100.00;100664.44;5069033;28;46194;-82
2023/03/06 07:14:04;;;;;;;;;26.25;20.75;;;;;5.39;100.00;100662.75;5035637;28;45785;-81
2023/03/06 07:16:30;;;;;;;;;28.50;20.25;;;;;5.41;100.00;100656.72;5035553;28;46702;-81
2023/03/06 07:18:55;;;;;;;;;24.25;20.50;;;;;5.41;100.00;100661.03;5036216;28;47356;-81
2023/03/06 07:21:20;;;;;;;;;24.25;19.50;;;;;5.41;100.00;100663.59;5036350;28;64038;-81
2023/03/06 07:23:46;;;;;;;;;33.00;21.00;;;;;5.40;100.00;100659.28;5046568;28;49043;-83
2023/03/06 07:26:11;;;;;;;;;20.75;13.75;;;;;5.40;100.00;100657.59;5036219;28;45384;-82
2023/03/06 07:28:37;;;;;;;;;27.00;20.00;;;;;5.41;100.00;100658.44;5036652;28;45564;-81
2023/03/06 07:31:07;;;;;;;;;26.75;18.75;;;;;5.45;100.00;100661.84;5035203;28;62291;-81
2023/03/06 07:33:33;;;;;;;;;21.50;13.50;;;;;5.49;100.00;100656.63;5018831;28;45409;-81
2023/03/06 07:35:58;;;;;;;;;36.50;18.50;;;;;5.52;100.00;100658.34;5034845;28;56975;-82
2023/03/06 07:38:24;;;;;;;;;25.25;18.25;;;;;5.56;100.00;100663.44;5034406;28;60409;-81
2023/03/06 07:40:50;;;;;;;;;30.25;18.00;;;;;5.58;100.00;100661.72;5036006;28;55355;-82
2023/03/06 07:43:15;;;;;;;;;27.75;15.25;;;;;5.63;100.00;100661.69;5035135;28;45413;-81
2023/03/06 07:45:41;;;;;;;;;28.75;18.75;;;;;5.67;100.00;100665.94;5035730;28;59261;-82
2023/03/06 07:48:06;;;;;;;;;25.25;17.75;;;;;5.67;100.00;100668.53;5033863;28;47871;-82
2023/03/06 07:50:32;;;;;;;;;28.00;17.75;;;;;5.65;100.00;100664.25;5034967;28;60249;-82
2023/03/06 07:52:57;;;;;;;;;26.25;18.50;;;;;5.66;100.00;100661.63;5034665;28;45472;-83
2023/03/06 07:55:22;;;;;;;;;24.50;20.00;;;;;5.68;100.00;100670.22;5034946;28;56939;-84
2023/03/06 07:57:51;;;;;;;;;17.25;4.25;;;;;5.68;100.00;100667.63;5036088;28;45344;-83
2023/03/06 08:00:16;;;;;;;;;30.75;20.50;;;;;5.69;100.00;100666.78;5035656;28;45400;-82
2023/03/06 08:02:42;;;;;;;;;23.00;17.50;;;;;5.78;100.00;100663.25;5036079;28;45357;-82
2023/03/06 08:05:10;;;;;;;;;36.00;19.25;;;;;5.80;100.00;100664.09;5035320;28;58826;-82
2023/03/06 08:07:35;;;;;;;;;22.75;19.25;;;;;5.81;100.00;100661.50;5034565;28;45769;-81
2023/03/06 08:10:01;;;;;;;;;21.00;15.00;;;;;5.88;100.00;100670.03;5035678;28;45827;-80
2023/03/06 08:12:26;;;;;;;;;25.00;17.00;;;;;5.93;100.00;100667.41;5035111;28;66499;-80
2023/03/06 08:14:51;;;;;;;;;25.00;21.25;;;;;6.03;100.00;100668.19;5035292;28;60711;-80
2023/03/06 08:17:17;;;;;;;;;19.25;13.00;;;;;6.09;100.00;100671.56;5035186;28;64408;-79
2023/03/06 08:19:42;;;;;;;;;21.50;14.75;;;;;6.14;100.00;100672.34;5034829;28;72860;-80
2023/03/06 08:22:09;;;;;;;;;24.50;14.75;;;;;6.13;100.00;100673.22;5034710;28;70283;-80
2023/03/06 08:24:35;;;;;;;;;29.00;17.25;;;;;6.15;100.00;100668.91;5035845;28;45332;-80
2023/03/06 08:27:00;;;;;;;;;22.75;18.50;;;;;6.20;100.00;100674.00;5035785;28;45493;-79
2023/03/06 08:29:26;;;;;;;;;28.00;14.50;;;;;6.16;100.00;100680.09;5035502;28;45362;-80
2023/03/06 08:31:52;;;;;;;;;23.00;19.25;;;;;6.14;100.00;100680.09;5035550;28;46982;-80
2023/03/06 08:34:20;;;;;;;;;20.75;16.25;;;;;6.13;100.00;100678.41;5035707;28;45443;-80
2023/03/06 08:36:45;;;;;;;;;22.50;17.00;;;;;6.17;100.00;100686.97;5035569;28;45405;-80
2023/03/06 08:39:11;;;;;;;;;24.00;20.00;;;;;6.22;100.00;100690.34;5035529;28;46289;-81
2023/03/06 08:41:37;;;;;;;;;23.75;14.75;;;;;6.29;100.00;100681.63;5035654;28;45432;-80
2023/03/06 08:44:03;;;;;;;;;21.00;18.00;;;;;6.39;100.00;100688.44;5035280;28;48968;-80
2023/03/06 08:46:30;;;;;;;;;24.00;15.25;;;;;6.51;100.00;100689.16;5035303;28;45489;-80
2023/03/06 08:48:56;;;;;;;;;17.00;14.75;;;;;6.57;100.00;100689.94;5033996;28;46548;-80
2023/03/06 08:51:22;;;;;;;;;26.50;13.50;;;;;6.66;100.00;100698.44;5018513;28;47102;-80
2023/03/06 08:53:48;;;;;;;;;27.50;19.00;;;;;6.76;100.00;100687.06;5057188;28;45364;-80
2023/03/06 08:56:33;;;;;;;;;21.00;14.75;;;;;6.92;100.00;100698.91;5066904;28;45423;-81
2023/03/06 08:59:00;;;;;;;;;25.50;15.50;;;;;7.05;100.00;100694.41;5032748;28;45481;-80
2023/03/06 09:01:27;;;;;;;;;17.50;14.25;;;;;7.06;100.00;100695.28;5032691;28;45393;-80
2023/03/06 09:03:57;;;;;;;;;19.75;16.75;;;;;7.08;100.00;100691.78;5035056;28;45537;-80
2023/03/06 09:06:23;;;;;;;;;23.25;14.50;;;;;7.07;100.00;100690.06;5034663;28;45394;-80
2023/03/06 09:08:53;;;;;;;;;22.25;13.50;;;;;7.11;100.00;100693.47;5034645;28;46339;-80
2023/03/06 09:11:19;;;;;;;;;20.50;14.50;;;;;7.24;100.00;100694.97;5034794;28;45915;-80
2023/03/06 09:13:44;;;;;;;;;20.25;16.25;;;;;7.45;100.00;100686.03;5034971;28;45375;-81
2023/03/06 09:16:10;;;;;;;;;20.75;15.25;;;;;7.64;100.00;100683.97;5034752;28;45521;-79
2023/03/06 09:18:36;;;;;;;;;18.25;15.25;;;;;7.80;100.00;100681.97;5033723;28;72325;-81
2023/03/06 09:21:02;;;;;;;;;18.75;13.25;;;;;7.97;100.00;100688.53;5033710;28;66975;-80
2023/03/06 09:23:28;;;;;;;;;19.00;15.75;;;;;8.03;100.00;100685.84;5034893;28;45309;-80
2023/03/06 09:25:55;;;;;;;;;23.50;15.50;;;;;8.05;100.00;100692.72;5034771;28;45277;-80
2023/03/06 09:28:21;;;;;;;;;23.00;16.00;;;;;8.10;100.00;100693.47;5034723;28;45261;-80
2023/03/06 09:30:46;;;;;;;;;15.25;11.25;;;;;8.19;100.00;100689.00;5034779;28;45451;-80
2023/03/06 09:33:12;;;;;;;;;24.25;16.00;;;;;8.23;100.00;100690.66;5034659;28;45555;-80
2023/03/06 09:35:48;;;;;;;;;24.25;15.00;;;;;8.27;100.00;100692.31;5034305;28;45779;-80
2023/03/06 09:38:13;;;;;;;;;23.75;16.00;;;;;8.40;100.00;100692.91;5033148;28;46482;-80
2023/03/06 09:41:14;;;;;;;;;25.00;16.50;;;;;8.50;100.00;100705.66;5034599;28;45312;-81
2023/03/06 09:43:43;;;;;;;;;19.25;15.50;;;;;8.61;100.00;100696.81;5033373;28;45381;-80
2023/03/06 09:46:37;;;;;;;;;11.00;8.75;;;;;8.83;100.00;100700.66;5033180;28;45701;-80
2023/03/06 09:49:11;;;;;;;;;22.25;16.25;;;;;8.90;100.00;100704.81;5032604;28;45552;-80
2023/03/06 09:52:15;;;;;;;;;22.25;15.75;;;;;8.95;100.00;100706.44;5033915;28;45322;-81
2023/03/06 09:54:55;;;;;;;;;19.75;15.50;;;;;9.09;100.00;100694.00;5033292;28;45514;-80
2023/03/06 09:57:36;;;;;;;;;21.25;14.25;;;;;9.36;100.00;100699.41;5034621;28;45419;-80
2023/03/06 10:00:19;;;;;;;;;12.00;9.25;;;;;9.63;99.94;100696.13;5070310;28;46682;-80
2023/03/06 10:03:22;;;;;;;;;23.75;10.50;;;;;9.94;98.64;100695.34;5037606;28;45480;-80
2023/03/06 10:05:56;;;;;;;;;23.25;15.00;;;;;10.13;95.35;100687.88;5037742;28;45408;-80
2023/03/06 10:08:37;;;;;;;;;19.50;11.75;;;;;10.24;94.00;100691.03;5036680;28;45488;-80
2023/03/06 10:11:06;;;;;;;;;24.50;17.75;;;;;10.23;91.66;100691.06;5069176;28;46021;-80
2023/03/06 10:13:47;;;;;;;;;22.25;15.00;;;;;10.25;94.17;100690.16;5036282;28;45616;-80
2023/03/06 10:16:27;;;;;;;;;23.00;17.00;;;;;10.42;92.90;100687.09;5036434;28;45528;-81
2023/03/06 10:18:54;;;;;;;;;17.00;13.25;;;;;10.59;92.67;100677.94;5035859;28;45330;-80
2023/03/06 10:21:28;;;;;;;;;15.25;10.25;;;;;10.68;88.24;100680.25;5036109;28;45432;-81
2023/03/06 10:23:57;;;;;;;;;11.75;9.75;;;;;10.87;86.74;100679.72;5035363;28;45408;-80
2023/03/06 10:26:25;;;;;;;;;22.75;11.50;;;;;11.08;86.83;100671.19;5035914;28;45653;-79
2023/03/06 10:28:55;;;;;;;;;16.50;13.00;;;;;11.15;85.40;100669.25;5034205;28;45496;-80
2023/03/06 10:31:26;;;;;;;;;15.75;11.00;;;;;11.09;83.38;100674.63;5034842;28;46355;-81
2023/03/06 10:34:10;;;;;;;;;15.75;11.00;;;;;10.98;80.99;100675.00;5033999;28;45488;-81
2023/03/06 10:36:35;;;;;;;;;13.00;11.00;;;;;10.91;81.94;100671.72;5032101;28;45419;-81
2023/03/06 10:39:05;;;;;;;;;18.50;12.50;;;;;10.78;81.55;100673.03;5034722;28;46064;-81
2023/03/06 10:41:34;;;;;;;;;15.00;11.00;;;;;10.77;82.86;100673.91;5033324;28;46161;-81
2023/03/06 10:43:59;;;;;;;;;13.75;9.75;;;;;10.90;81.44;100679.59;5034588;28;46100;-81
2023/03/06 10:46:33;;;;;;;;;13.33;9.00;;;;;11.15;81.24;100677.91;5034951;28;45366;-81
2023/03/06 10:49:01;;;;;;;;;9.75;9.25;;;;;11.27;78.51;100681.03;5029292;28;46696;-80
2023/03/06 10:51:28;;;;;;;;;14.25;10.25;;;;;11.34;77.93;100674.72;5062649;28;46637;-80
2023/03/06 10:54:02;;;;;;;;;15.25;11.00;;;;;11.35;78.67;100674.66;5034190;28;45335;-80
2023/03/06 10:56:29;;;;;;;;;15.25;11.00;;;;;11.34;77.68;100678.16;5034351;28;45451;-79
2023/03/06 10:59:06;;;;;;;;;16.75;12.75;;;;;11.31;76.00;100670.47;5034086;28;45265;-80
2023/03/06 11:01:32;;;;;;;;;16.25;13.25;;;;;11.28;79.14;100673.16;5033740;28;46523;-79
2023/03/06 11:04:33;;;;;;;;;21.75;10.25;;;;;11.25;78.98;100678.47;5033833;28;45341;-79
2023/03/06 11:07:25;;;;;;;;;22.75;13.25;;;;;11.08;79.24;100663.38;5028862;28;45695;-78
2023/03/06 11:09:56;;;;;;;;;18.50;11.00;;;;;10.88;78.21;100660.56;5031323;28;45405;-78
2023/03/06 11:12:38;;;;;;;;;16.75;11.00;;;;;10.67;77.34;100665.53;5033692;28;45585;-78